Portada
METAR-TAF:

METAR-TAF

Aeroports :

Fort Madison Municipal Airport

Fort Madison, Iowa, Estats Units d'Amèrica

latitud: 40-40N, longitud: 091-20W, altitud: 221 m

Observació

L'informe es va fer fa 19 minuts, a les 02:35 UTC
Vent calma
Temperatura 4°C
Humitat 48%
Pressió 1021 hPa
Visibilitat: 16.1 km

METAR: KFSW 220235Z AUTO 00000KT 10SM 04/M06 A3016 RMK AO2

Hora: 21:54 (02:54 UTC)


TAF: manca

Observacions i pronòstics meteorològics de més de 4000 aeroports (METAR i TAF).

Les estacions disponibles són els punts grocs i vermells al mapa.

Posi el ratolí al punt desitjat per veure el nom de l'estació.

Feu clic per veure les observacions i els pronòstics meteorològics.

Per canviar el mapa: feu clic els botons verds amb una creu de color negre per apropar; al botó verd amb un guió per allunyar la imatge; o en les fletxes verdes per a mapes adjacents.


METAR-TAF: